createdAt,value
2022-12-15T00:02:58.465Z,23.00
2022-12-15T00:05:50.412Z,19.40
2022-12-15T00:08:55.394Z,18.17
2022-12-15T00:11:54.410Z,18.48
2022-12-15T00:15:06.418Z,17.10
2022-12-15T00:18:18.383Z,17.33
2022-12-15T00:21:30.403Z,19.27
2022-12-15T00:24:42.377Z,19.70
2022-12-15T00:27:48.391Z,17.55
2022-12-15T00:30:49.976Z,18.90
2022-12-15T00:34:02.378Z,16.10
2022-12-15T00:37:07.379Z,19.25
2022-12-15T00:39:47.382Z,18.02
2022-12-15T00:42:35.411Z,19.23
2022-12-15T00:45:08.467Z,18.08
2022-12-15T00:47:55.415Z,19.75
2022-12-15T00:50:53.409Z,17.52
2022-12-15T00:53:58.397Z,17.02
2022-12-15T00:56:52.233Z,18.40
2022-12-15T00:59:57.386Z,18.15
2022-12-15T01:02:49.187Z,16.55
2022-12-15T01:05:55.412Z,19.67
2022-12-15T01:08:53.409Z,17.38
2022-12-15T01:11:58.398Z,17.88
2022-12-15T01:14:58.412Z,19.45
2022-12-15T01:18:10.418Z,19.92
2022-12-15T01:21:11.463Z,17.23
2022-12-15T01:23:52.504Z,19.55
2022-12-15T01:26:39.438Z,18.52
2022-12-15T01:29:19.417Z,17.88
2022-12-15T01:32:13.397Z,19.23
2022-12-15T01:35:01.468Z,19.75
2022-12-15T01:37:41.511Z,21.08
2022-12-15T01:40:53.461Z,20.27
2022-12-15T01:43:49.802Z,19.38
2022-12-15T01:46:43.522Z,19.02
2022-12-15T01:49:35.403Z,19.05
2022-12-15T01:52:19.396Z,19.67
2022-12-15T01:55:06.405Z,19.45
2022-12-15T01:57:41.676Z,17.10
2022-12-15T02:00:28.437Z,18.60
2022-12-15T02:03:10.590Z,21.00
2022-12-15T02:06:04.438Z,19.20
2022-12-15T02:09:00.501Z,18.65
2022-12-15T02:12:12.450Z,20.05
2022-12-15T02:15:44.545Z,19.10
2022-12-15T02:18:50.446Z,18.85
2022-12-15T02:21:56.432Z,19.52
2022-12-15T02:25:11.498Z,20.63
2022-12-15T02:28:07.449Z,19.55
2022-12-15T02:30:46.516Z,21.77
2022-12-15T02:33:37.457Z,18.77
2022-12-15T02:36:14.526Z,18.25
2022-12-15T02:39:01.482Z,19.25
2022-12-15T02:41:58.465Z,18.60
2022-12-15T02:44:52.444Z,21.30
2022-12-15T02:47:39.432Z,18.88
2022-12-15T02:50:55.448Z,19.08
2022-12-15T02:53:41.432Z,20.00
2022-12-15T02:56:42.432Z,19.85
2022-12-15T02:59:51.426Z,19.65
2022-12-15T03:02:41.523Z,22.50
2022-12-15T03:05:15.527Z,23.60
2022-12-15T03:08:02.438Z,20.13
2022-12-15T03:10:35.601Z,21.83
2022-12-15T03:13:22.460Z,21.67
2022-12-15T03:16:04.571Z,20.25
2022-12-15T03:18:58.570Z,19.98
2022-12-15T03:21:52.445Z,21.75
2022-12-15T03:24:46.454Z,22.10
2022-12-15T03:27:33.446Z,19.58
2022-12-15T03:30:06.532Z,21.80
2022-12-15T03:33:00.432Z,20.27
2022-12-15T03:35:47.429Z,20.50
2022-12-15T03:38:27.461Z,18.10
2022-12-15T03:41:14.454Z,22.00
2022-12-15T03:43:54.488Z,21.13
2022-12-15T03:46:41.487Z,19.23
2022-12-15T03:49:14.569Z,19.92
2022-12-15T03:52:01.447Z,18.55
2022-12-15T03:54:41.446Z,21.23
2022-12-15T03:57:35.485Z,21.08
2022-12-15T04:00:25.461Z,19.75
2022-12-15T04:03:06.612Z,23.10
2022-12-15T04:05:53.447Z,21.75
2022-12-15T04:08:33.462Z,19.48
2022-12-15T04:11:27.508Z,19.13
2022-12-15T04:14:22.439Z,19.80
2022-12-15T04:17:09.569Z,25.15
2022-12-15T04:20:02.159Z,27.35
2022-12-15T04:22:53.472Z,24.88
2022-12-15T04:25:50.188Z,22.13
2022-12-15T04:28:54.499Z,25.67
2022-12-15T04:31:52.309Z,27.23
2022-12-15T04:34:58.452Z,22.27
2022-12-15T04:37:59.482Z,27.45
2022-12-15T04:41:11.475Z,29.75
2022-12-15T04:44:16.490Z,33.88
2022-12-15T04:47:08.266Z,26.13
2022-12-15T04:50:14.514Z,28.50
2022-12-15T04:53:13.467Z,24.27
2022-12-15T04:56:18.965Z,23.38
2022-12-15T04:59:12.085Z,27.38
2022-12-15T05:02:16.619Z,27.05
2022-12-15T05:05:08.565Z,26.55
2022-12-15T05:08:13.534Z,24.67
2022-12-15T05:11:05.085Z,25.05
2022-12-15T05:14:09.474Z,28.02
2022-12-15T05:17:01.597Z,28.65
2022-12-15T05:20:07.486Z,25.55
2022-12-15T05:22:59.346Z,24.88
2022-12-15T05:26:04.467Z,28.67
2022-12-15T05:29:02.479Z,30.20
2022-12-15T05:31:58.489Z,25.02
2022-12-15T05:34:45.483Z,28.55
2022-12-15T05:37:18.583Z,29.00
2022-12-15T05:40:05.481Z,28.27
2022-12-15T05:42:38.571Z,27.30
2022-12-15T05:45:25.483Z,27.52
2022-12-15T05:47:59.581Z,33.28
2022-12-15T05:50:46.489Z,26.40
2022-12-15T05:53:19.553Z,34.72
2022-12-15T05:56:11.501Z,32.25
2022-12-15T05:58:45.857Z,36.08
2022-12-15T06:01:33.557Z,41.17
2022-12-15T06:04:07.471Z,40.38
2022-12-15T06:06:54.561Z,38.70
2022-12-15T06:09:27.571Z,31.77
2022-12-15T06:12:14.470Z,31.98
2022-12-15T06:14:47.603Z,28.25
2022-12-15T06:17:36.484Z,26.98
2022-12-15T06:20:09.592Z,26.77
2022-12-15T06:22:56.510Z,27.80
2022-12-15T06:25:29.580Z,27.88
2022-12-15T06:28:16.499Z,25.92
2022-12-15T06:30:49.552Z,26.40
2022-12-15T06:33:36.519Z,31.20
2022-12-15T06:36:12.699Z,27.30
2022-12-15T06:38:59.513Z,30.23
2022-12-15T06:41:40.553Z,25.30
2022-12-15T06:44:34.496Z,27.55
2022-12-15T06:47:28.490Z,25.85
2022-12-15T06:50:22.566Z,25.55
2022-12-15T06:53:16.514Z,27.38
2022-12-15T06:56:13.537Z,27.98
2022-12-15T06:58:46.589Z,26.23
2022-12-15T07:01:33.769Z,27.55
2022-12-15T07:04:07.677Z,34.08
2022-12-15T07:06:54.554Z,29.08
2022-12-15T07:09:34.536Z,27.40
2022-12-15T07:12:28.531Z,30.02
2022-12-15T07:15:15.568Z,33.53
2022-12-15T07:17:48.636Z,34.22
2022-12-15T07:20:35.528Z,35.63
2022-12-15T07:23:16.514Z,34.25
2022-12-15T07:26:11.806Z,36.25
2022-12-15T07:28:51.529Z,34.33
2022-12-15T07:31:38.807Z,29.73
2022-12-15T07:34:32.532Z,32.20
2022-12-15T07:37:19.521Z,33.88
2022-12-15T07:39:55.735Z,29.55
2022-12-15T07:42:42.526Z,32.38
2022-12-15T07:45:16.648Z,32.05
2022-12-15T07:48:03.514Z,34.20
2022-12-15T07:50:36.619Z,33.58
2022-12-15T07:53:23.540Z,31.35
2022-12-15T07:56:08.823Z,31.75
2022-12-15T07:58:50.553Z,28.90
2022-12-15T08:01:31.618Z,32.63
2022-12-15T08:04:12.550Z,32.83
2022-12-15T08:07:03.544Z,33.97
2022-12-15T08:09:43.527Z,35.47
2022-12-15T08:12:37.559Z,44.17
2022-12-15T08:15:31.533Z,44.50
2022-12-15T08:18:18.547Z,37.50
2022-12-15T08:20:51.611Z,42.60
2022-12-15T08:23:38.577Z,39.33
2022-12-15T08:26:21.578Z,38.05
2022-12-15T08:32:14.657Z,43.13
2022-12-15T08:35:01.539Z,46.47
2022-12-15T08:37:41.595Z,46.75
2022-12-15T08:40:35.547Z,47.13
2022-12-15T08:43:22.558Z,48.30
2022-12-15T08:45:58.652Z,44.20
2022-12-15T08:48:45.565Z,45.05
2022-12-15T08:51:18.630Z,46.95
2022-12-15T08:54:06.548Z,53.30
2022-12-15T08:56:49.567Z,50.85
2022-12-15T08:59:29.592Z,48.50
2022-12-15T09:02:09.646Z,48.20
2022-12-15T09:04:44.048Z,41.95
2022-12-15T09:07:30.544Z,44.05
2022-12-15T09:10:03.623Z,43.17
2022-12-15T09:12:50.574Z,43.03
2022-12-15T09:15:45.462Z,41.78
2022-12-15T09:18:31.580Z,44.15
2022-12-15T09:21:09.612Z,41.05
2022-12-15T09:23:58.555Z,48.63
2022-12-15T09:26:43.565Z,48.35
2022-12-15T09:29:37.569Z,37.75
2022-12-15T09:32:31.561Z,47.05
2022-12-15T09:35:18.583Z,47.33
2022-12-15T09:37:52.138Z,48.50
2022-12-15T09:40:39.586Z,40.83
2022-12-15T09:43:33.855Z,43.53
2022-12-15T09:46:27.690Z,73.93
2022-12-15T09:49:04.965Z,52.88
2022-12-15T09:51:57.613Z,35.97
2022-12-15T09:54:37.708Z,35.08
2022-12-15T09:57:33.585Z,28.08
2022-12-15T10:00:25.839Z,28.23
2022-12-15T10:03:23.686Z,27.60
2022-12-15T10:06:21.222Z,32.55
2022-12-15T10:09:21.581Z,36.30
2022-12-15T10:12:53.219Z,38.65
2022-12-15T10:16:04.648Z,45.75
2022-12-15T10:19:14.587Z,31.20
2022-12-15T10:21:54.656Z,31.23
2022-12-15T10:28:05.611Z,23.75
2022-12-15T10:30:39.804Z,27.95
2022-12-15T10:33:31.111Z,29.77
2022-12-15T10:36:04.669Z,26.50
2022-12-15T10:38:54.582Z,25.75
2022-12-15T10:41:29.668Z,26.20
2022-12-15T10:44:32.608Z,25.88
2022-12-15T10:47:23.603Z,25.13
2022-12-15T10:54:00.594Z,31.25
2022-12-15T10:57:09.591Z,30.63
2022-12-15T10:59:51.593Z,30.50
2022-12-15T11:02:42.776Z,28.98
2022-12-15T11:05:18.744Z,33.00
2022-12-15T11:08:24.602Z,28.17
2022-12-15T11:11:28.600Z,28.45
2022-12-15T11:14:24.601Z,24.75
2022-12-15T11:17:03.681Z,29.23
2022-12-15T11:19:58.263Z,26.33
2022-12-15T11:22:55.611Z,24.60
2022-12-15T11:25:50.598Z,28.15
2022-12-15T11:28:34.675Z,26.40
2022-12-15T11:31:27.598Z,24.50
2022-12-15T11:34:31.617Z,26.80
2022-12-15T11:37:36.219Z,27.48
2022-12-15T11:40:46.607Z,28.15
2022-12-15T11:44:20.680Z,27.00
2022-12-15T11:47:28.607Z,22.85
2022-12-15T11:50:31.747Z,22.02
2022-12-15T11:53:37.636Z,20.83
2022-12-15T11:56:35.628Z,24.95
2022-12-15T11:59:40.607Z,22.88
2022-12-15T12:02:47.729Z,23.33
2022-12-15T12:05:47.629Z,24.15
2022-12-15T12:09:07.615Z,26.45
2022-12-15T12:12:11.635Z,26.65
2022-12-15T12:15:10.631Z,26.85
2022-12-15T12:18:11.622Z,26.88
2022-12-15T12:21:05.748Z,25.10
2022-12-15T12:23:55.601Z,25.90
2022-12-15T12:26:53.704Z,27.65
2022-12-15T12:29:57.649Z,28.85
2022-12-15T12:32:46.651Z,27.67
2022-12-15T12:35:53.638Z,28.38
2022-12-15T12:38:52.676Z,28.25
2022-12-15T12:41:49.624Z,41.35
2022-12-15T12:44:43.618Z,34.67
2022-12-15T12:47:27.726Z,32.55
2022-12-15T12:50:23.649Z,33.92
2022-12-15T12:53:00.712Z,33.90
2022-12-15T12:55:48.629Z,33.40
2022-12-15T12:58:45.734Z,32.22
2022-12-15T13:01:38.804Z,32.13
2022-12-15T13:04:27.648Z,29.90
2022-12-15T13:07:48.641Z,35.83
2022-12-15T13:10:35.632Z,50.03
2022-12-15T13:13:23.719Z,45.33
2022-12-15T13:16:23.647Z,46.00
2022-12-15T13:19:18.694Z,50.70
2022-12-15T13:22:12.612Z,55.88
2022-12-15T13:25:06.635Z,46.22
2022-12-15T13:28:05.629Z,42.63
2022-12-15T13:31:23.821Z,47.42
2022-12-15T13:33:56.971Z,40.10
2022-12-15T13:36:43.647Z,37.53
2022-12-15T13:39:26.687Z,39.53
2022-12-15T13:42:33.528Z,34.50
2022-12-15T13:45:30.671Z,42.33
2022-12-15T13:48:31.696Z,36.35
2022-12-15T13:51:24.659Z,35.17
2022-12-15T13:54:11.703Z,33.03
2022-12-15T13:57:06.661Z,31.80
2022-12-15T13:59:46.637Z,35.10
2022-12-15T14:02:38.667Z,34.10
2022-12-15T14:05:14.811Z,34.55
2022-12-15T14:08:02.632Z,34.00
2022-12-15T14:14:09.640Z,34.10
2022-12-15T14:16:42.799Z,38.92
2022-12-15T14:19:34.938Z,44.17
2022-12-15T14:22:19.177Z,38.05
2022-12-15T14:25:20.656Z,49.00
2022-12-15T14:27:54.752Z,43.08
2022-12-15T14:30:41.666Z,39.00
2022-12-15T14:33:23.006Z,36.35
2022-12-15T14:36:17.664Z,37.30
2022-12-15T14:39:05.738Z,37.72
2022-12-15T14:41:55.693Z,35.22
2022-12-15T14:47:43.691Z,35.78
2022-12-15T14:50:23.330Z,50.53
2022-12-15T14:53:22.662Z,49.85
2022-12-15T14:55:55.750Z,47.60
2022-12-15T14:58:46.703Z,44.38
2022-12-15T15:01:31.903Z,49.65
2022-12-15T15:03:10.677Z,23.88
2022-12-15T15:03:16.117Z,47.30
2022-12-15T15:04:35.677Z,40.42
2022-12-15T15:07:11.771Z,48.30
2022-12-15T15:09:59.683Z,42.70
2022-12-15T15:12:57.665Z,47.85
2022-12-15T15:15:51.694Z,46.08
2022-12-15T15:18:38.673Z,40.95
2022-12-15T15:21:13.772Z,48.73
2022-12-15T15:24:08.678Z,50.38
2022-12-15T15:26:41.889Z,56.97
2022-12-15T15:29:49.677Z,55.28
2022-12-15T15:32:35.669Z,45.45
2022-12-15T15:35:29.709Z,44.42
2022-12-15T15:38:35.425Z,56.00
2022-12-15T15:41:21.072Z,53.38
2022-12-15T15:44:00.705Z,62.00
2022-12-15T15:46:51.727Z,81.28
2022-12-15T15:49:45.697Z,93.72
2022-12-15T15:52:35.691Z,109.55
2022-12-15T15:55:15.702Z,102.40
2022-12-15T15:58:09.687Z,97.68
2022-12-15T16:00:56.804Z,84.88
2022-12-15T16:03:30.043Z,74.65
2022-12-15T16:06:24.711Z,54.95
2022-12-15T16:09:06.689Z,63.40
2022-12-15T16:12:00.713Z,68.82
2022-12-15T16:14:47.708Z,62.38
2022-12-15T16:17:22.773Z,70.28
2022-12-15T16:20:10.725Z,81.40
2022-12-15T16:22:43.853Z,72.90
2022-12-15T16:25:48.422Z,85.43
2022-12-15T16:28:26.818Z,62.95
2022-12-15T16:31:20.722Z,68.82
2022-12-15T16:34:00.699Z,80.93
2022-12-15T16:36:54.705Z,76.78
2022-12-15T16:39:48.717Z,77.07
2022-12-15T16:42:35.700Z,58.13
2022-12-15T16:45:28.713Z,59.13
2022-12-15T16:48:22.770Z,47.55
2022-12-15T16:51:20.779Z,44.03
2022-12-15T16:54:14.806Z,51.03
2022-12-15T16:57:03.709Z,50.95
2022-12-15T16:59:36.785Z,43.72
2022-12-15T17:02:32.973Z,52.63
2022-12-15T17:05:06.879Z,50.97
2022-12-15T17:07:59.719Z,51.60
2022-12-15T17:10:36.293Z,60.90
2022-12-15T17:13:45.388Z,60.40
2022-12-15T17:16:19.859Z,56.08
2022-12-15T17:19:06.721Z,50.33
2022-12-15T17:21:45.856Z,58.80
2022-12-15T17:24:32.760Z,60.90
2022-12-15T17:27:12.804Z,61.50
2022-12-15T17:30:06.752Z,61.50
2022-12-15T17:33:00.729Z,61.75
2022-12-15T17:35:47.715Z,62.97
2022-12-15T17:38:25.275Z,66.53
2022-12-15T17:41:28.821Z,59.53
2022-12-15T17:44:31.895Z,51.13
2022-12-15T17:47:04.822Z,56.85
2022-12-15T17:49:44.763Z,57.55
2022-12-15T17:52:37.836Z,59.42
2022-12-15T17:55:34.997Z,92.25
2022-12-15T17:58:09.857Z,123.20
2022-12-15T18:00:59.730Z,97.80
2022-12-15T18:03:33.235Z,67.88
2022-12-15T18:06:21.764Z,62.88
2022-12-15T18:08:54.802Z,52.53
2022-12-15T18:11:41.755Z,60.00
2022-12-15T18:14:19.857Z,57.53
2022-12-15T18:17:06.749Z,58.30
2022-12-15T18:19:40.134Z,58.38
2022-12-15T18:22:30.748Z,58.15
2022-12-15T18:25:03.893Z,59.50
2022-12-15T18:27:50.733Z,58.72
2022-12-15T18:30:29.970Z,54.97
2022-12-15T18:33:24.738Z,59.33
2022-12-15T18:36:18.759Z,52.10
2022-12-15T18:39:12.757Z,48.08
2022-12-15T18:42:03.748Z,53.38
2022-12-15T18:44:38.819Z,53.25
2022-12-15T18:47:31.807Z,59.10
2022-12-15T18:50:04.973Z,59.38
2022-12-15T18:52:51.781Z,53.72
2022-12-15T18:55:28.863Z,59.25
2022-12-15T18:58:30.777Z,64.82
2022-12-15T19:01:06.905Z,61.33
2022-12-15T19:03:53.758Z,66.95
2022-12-15T19:06:43.747Z,55.33
2022-12-15T19:09:37.755Z,58.45
2022-12-15T19:12:24.751Z,51.00
2022-12-15T19:14:59.022Z,57.67
2022-12-15T19:18:03.949Z,65.32
2022-12-15T19:20:55.370Z,58.08
2022-12-15T19:23:41.772Z,61.05
2022-12-15T19:26:17.861Z,51.05
2022-12-15T19:29:04.786Z,50.17
2022-12-15T19:31:37.905Z,50.53
2022-12-15T19:34:24.792Z,51.00
2022-12-15T19:36:57.859Z,48.90
2022-12-15T19:39:44.762Z,79.93
2022-12-15T19:42:32.769Z,56.72
2022-12-15T19:45:35.806Z,112.30
2022-12-15T19:48:24.156Z,101.47
2022-12-15T19:51:04.769Z,64.45
2022-12-15T19:53:55.779Z,52.35
2022-12-15T19:56:36.781Z,57.75
2022-12-15T19:59:31.777Z,71.88
2022-12-15T20:02:05.092Z,50.80
2022-12-15T20:04:51.788Z,58.25
2022-12-15T20:07:30.902Z,50.88
2022-12-15T20:10:32.919Z,53.72
2022-12-15T20:13:07.598Z,66.53
2022-12-15T20:15:54.829Z,55.00
2022-12-15T20:18:35.293Z,48.30
2022-12-15T20:21:29.798Z,49.45
2022-12-15T20:24:28.791Z,74.10
2022-12-15T20:27:30.785Z,66.78
2022-12-15T20:30:29.800Z,69.53
2022-12-15T20:33:03.001Z,66.25
2022-12-15T20:35:51.784Z,60.83
2022-12-15T20:38:35.792Z,52.95
2022-12-15T20:41:33.795Z,62.35
2022-12-15T20:44:06.985Z,60.67
2022-12-15T20:46:53.787Z,71.90
2022-12-15T20:49:28.910Z,60.85
2022-12-15T20:52:25.798Z,58.45
2022-12-15T20:55:02.979Z,50.80
2022-12-15T20:57:49.803Z,38.58
2022-12-15T21:00:30.942Z,41.08
2022-12-15T21:03:37.195Z,34.10
2022-12-15T21:06:24.813Z,38.97
2022-12-15T21:08:59.052Z,37.42
2022-12-15T21:11:46.850Z,37.97
2022-12-15T21:14:26.013Z,38.38
2022-12-15T21:17:12.859Z,34.53
2022-12-15T21:19:52.806Z,33.45
2022-12-15T21:22:48.855Z,36.63
2022-12-15T21:25:42.840Z,46.88
2022-12-15T21:28:36.811Z,48.30
2022-12-15T21:31:25.922Z,60.38
2022-12-15T21:33:59.903Z,55.08
2022-12-15T21:36:54.928Z,58.85
2022-12-15T21:39:39.866Z,61.53
2022-12-15T21:42:33.811Z,70.10
2022-12-15T21:45:26.859Z,78.47
2022-12-15T21:48:18.574Z,61.40
2022-12-15T21:51:04.833Z,44.67
2022-12-15T21:53:37.879Z,43.25
2022-12-15T21:56:26.806Z,41.33
2022-12-15T21:59:00.465Z,54.17
2022-12-15T22:01:46.981Z,50.80
2022-12-15T22:04:26.951Z,54.30
2022-12-15T22:07:20.814Z,42.17
2022-12-15T22:10:00.828Z,42.10
2022-12-15T22:12:59.750Z,39.88
2022-12-15T22:15:54.716Z,50.45
2022-12-15T22:18:44.869Z,59.30
2022-12-15T22:21:24.804Z,51.15
2022-12-15T22:24:11.870Z,47.85
2022-12-15T22:26:47.217Z,45.50
2022-12-15T22:29:36.845Z,48.05
2022-12-15T22:32:19.967Z,50.30
2022-12-15T22:35:06.831Z,62.10
2022-12-15T22:37:39.962Z,52.38
2022-12-15T22:40:27.874Z,53.90
2022-12-15T22:43:02.955Z,94.78
2022-12-15T22:45:49.869Z,76.25
2022-12-15T22:48:26.935Z,69.32
2022-12-15T22:51:14.884Z,69.53
2022-12-15T22:53:48.989Z,106.75
2022-12-15T22:56:44.846Z,53.80
2022-12-15T22:59:26.121Z,71.28
2022-12-15T23:02:12.833Z,64.93
2022-12-15T23:04:46.980Z,55.15
2022-12-15T23:07:34.820Z,56.95
2022-12-15T23:10:26.703Z,51.10
2022-12-15T23:13:13.870Z,47.08
2022-12-15T23:16:11.918Z,47.47
2022-12-15T23:19:01.873Z,120.32
2022-12-15T23:21:41.881Z,58.80
2022-12-15T23:24:35.872Z,48.33
2022-12-15T23:27:25.875Z,42.83
2022-12-15T23:29:58.947Z,45.53
2022-12-15T23:32:45.883Z,46.55
2022-12-15T23:35:25.886Z,45.58
2022-12-15T23:38:19.874Z,41.13
2022-12-15T23:41:13.875Z,31.58
2022-12-15T23:44:08.909Z,46.08
2022-12-15T23:46:55.957Z,42.85
2022-12-15T23:49:31.645Z,40.30
2022-12-15T23:52:20.863Z,42.40
2022-12-15T23:55:00.897Z,37.33
2022-12-15T23:57:54.908Z,32.58
